Time;durP1;ratioP1;P1;durP2;ratioP2;P2;SDS_P1;SDS_P2;PMS_P1;PMS_P2;Temp;Humidity;BMP_temperature;BMP_pressure;BME280_temperature;BME280_humidity;BME280_pressure;Samples;Min_cycle;Max_cycle;Signal;HPM_P1;HPM_P2
2023/06/24 00:01:26;;;;;;;10.60;7.65;;;18.80;99.90;;;;;;5082502;28;20527;-55
2023/06/24 00:03:53;;;;;;;7.97;7.20;;;18.70;99.90;;;;;;5081514;28;20097;-55
2023/06/24 00:06:22;;;;;;;8.80;7.25;;;18.70;99.90;;;;;;5081346;28;20096;-55
2023/06/24 00:08:48;;;;;;;7.40;6.35;;;18.60;99.90;;;;;;5079842;28;20448;-55
2023/06/24 00:11:15;;;;;;;9.63;6.47;;;18.60;99.90;;;;;;5068415;28;20048;-55
2023/06/24 00:13:42;;;;;;;9.45;7.20;;;18.60;99.90;;;;;;5061118;28;20040;-55
2023/06/24 00:16:08;;;;;;;9.10;6.75;;;18.60;99.90;;;;;;5061230;28;20273;-55
2023/06/24 00:18:35;;;;;;;10.13;7.60;;;18.50;99.90;;;;;;5061093;28;20402;-55
2023/06/24 00:21:04;;;;;;;9.20;7.47;;;18.50;99.90;;;;;;5060306;28;20049;-55
2023/06/24 00:23:34;;;;;;;12.07;8.02;;;18.50;99.90;;;;;;5060943;28;20033;-55
2023/06/24 00:26:00;;;;;;;10.40;7.55;;;18.50;99.90;;;;;;5060222;28;20064;-54
2023/06/24 00:28:26;;;;;;;13.27;8.40;;;18.50;99.90;;;;;;5074146;28;20164;-54
2023/06/24 00:30:53;;;;;;;10.02;8.10;;;18.40;99.90;;;;;;5078828;28;20477;-55
2023/06/24 00:33:21;;;;;;;9.95;8.77;;;18.40;99.90;;;;;;5068653;28;20044;-56
2023/06/24 00:35:47;;;;;;;11.18;9.40;;;18.40;99.90;;;;;;5067762;28;20057;-55
2023/06/24 00:38:13;;;;;;;11.52;9.60;;;18.30;99.90;;;;;;5069408;28;20044;-55
2023/06/24 00:40:39;;;;;;;13.68;9.57;;;18.30;99.90;;;;;;5067942;28;20114;-55
2023/06/24 00:43:05;;;;;;;11.65;10.10;;;18.30;99.90;;;;;;5070115;28;20041;-55
2023/06/24 00:45:31;;;;;;;12.27;10.23;;;18.20;99.90;;;;;;5063881;28;20029;-55
2023/06/24 00:48:01;;;;;;;12.63;9.90;;;18.20;99.90;;;;;;5064715;28;20100;-55
2023/06/24 00:50:27;;;;;;;12.57;10.02;;;18.20;99.90;;;;;;5059526;28;20096;-55
2023/06/24 00:52:52;;;;;;;11.88;10.00;;;18.10;99.90;;;;;;5074718;28;20404;-54
2023/06/24 00:55:20;;;;;;;11.43;10.23;;;18.10;99.90;;;;;;5060062;28;20050;-55
2023/06/24 00:57:51;;;;;;;14.57;10.82;;;18.00;99.90;;;;;;5060310;28;20502;-55
2023/06/24 01:00:19;;;;;;;12.93;9.95;;;18.00;99.90;;;;;;5059846;28;20041;-54
2023/06/24 01:02:47;;;;;;;16.20;11.38;;;17.90;99.90;;;;;;5065407;28;20070;-55
2023/06/24 01:05:14;;;;;;;13.05;11.13;;;17.90;99.90;;;;;;5070474;28;20455;-54
2023/06/24 01:07:41;;;;;;;12.98;10.80;;;17.80;99.90;;;;;;5063783;28;20048;-55
2023/06/24 01:10:08;;;;;;;14.38;10.45;;;17.80;99.90;;;;;;5080430;28;20115;-54
2023/06/24 01:12:39;;;;;;;13.07;10.23;;;17.70;99.90;;;;;;5078094;28;20033;-55
2023/06/24 01:15:08;;;;;;;12.55;10.35;;;17.70;99.90;;;;;;5080073;28;20167;-55
2023/06/24 01:17:33;;;;;;;13.68;10.48;;;17.60;99.90;;;;;;5076520;28;20075;-56
2023/06/24 01:20:11;;;;;;;12.45;10.23;;;17.60;99.90;;;;;;5060282;28;20041;-55
2023/06/24 01:22:55;;;;;;;12.68;10.27;;;17.60;99.90;;;;;;5065464;28;20049;-54
2023/06/24 01:25:23;;;;;;;11.85;10.15;;;17.60;99.90;;;;;;5079372;28;20055;-54
2023/06/24 01:27:52;;;;;;;12.07;9.77;;;17.60;99.90;;;;;;5078253;28;20051;-54
2023/06/24 01:30:28;;;;;;;12.35;10.55;;;17.50;99.90;;;;;;5063407;28;20074;-55
2023/06/24 01:32:59;;;;;;;11.32;10.18;;;17.50;99.90;;;;;;5077384;28;20045;-55
2023/06/24 01:35:31;;;;;;;11.65;10.27;;;17.50;99.90;;;;;;5079357;28;20076;-54
2023/06/24 01:38:01;;;;;;;11.82;9.98;;;17.40;99.90;;;;;;5064771;28;20107;-54
2023/06/24 01:40:37;;;;;;;10.93;9.80;;;17.40;99.90;;;;;;5079494;28;20064;-55
2023/06/24 01:43:04;;;;;;;11.50;9.80;;;17.40;99.90;;;;;;5075159;28;20048;-55
2023/06/24 01:45:45;;;;;;;12.70;10.48;;;17.30;99.90;;;;;;5073920;28;20099;-55
2023/06/24 01:48:27;;;;;;;13.73;10.55;;;17.30;99.90;;;;;;5067480;28;20036;-55
2023/06/24 01:51:01;;;;;;;13.30;10.35;;;17.30;99.90;;;;;;5066072;28;20068;-55
2023/06/24 01:53:28;;;;;;;13.63;10.75;;;17.20;99.90;;;;;;5066451;28;20045;-55
2023/06/24 01:55:56;;;;;;;16.33;11.15;;;17.20;99.90;;;;;;5067962;28;20045;-55
2023/06/24 01:58:22;;;;;;;12.30;10.32;;;17.20;99.90;;;;;;5069039;28;20053;-55
2023/06/24 02:00:50;;;;;;;12.10;10.77;;;17.20;99.90;;;;;;5076145;28;20044;-54
2023/06/24 02:03:17;;;;;;;12.43;11.13;;;17.10;99.90;;;;;;5076931;28;20047;-55
2023/06/24 02:05:45;;;;;;;13.00;10.88;;;17.10;99.90;;;;;;5071018;28;20041;-55
2023/06/24 02:08:13;;;;;;;13.32;11.07;;;17.10;99.90;;;;;;5065574;28;20041;-55
2023/06/24 02:10:40;;;;;;;13.90;11.32;;;17.00;99.90;;;;;;5062333;28;20037;-55
2023/06/24 02:13:09;;;;;;;13.95;10.48;;;17.00;99.90;;;;;;5061826;28;20094;-55
2023/06/24 02:15:37;;;;;;;13.15;11.18;;;17.00;99.90;;;;;;5059375;28;20184;-55
2023/06/24 02:18:04;;;;;;;12.65;11.20;;;16.90;99.90;;;;;;5058802;28;20048;-55
2023/06/24 02:20:31;;;;;;;14.80;12.27;;;16.90;99.90;;;;;;5058962;28;20045;-55
2023/06/24 02:22:59;;;;;;;15.30;12.57;;;16.80;99.90;;;;;;5070999;28;20045;-55
2023/06/24 02:25:26;;;;;;;14.05;12.55;;;16.80;99.90;;;;;;5071962;28;20040;-55
2023/06/24 02:27:54;;;;;;;13.75;12.35;;;16.70;99.90;;;;;;5069307;28;20393;-55
2023/06/24 02:30:22;;;;;;;16.90;12.68;;;16.70;99.90;;;;;;5070237;28;20107;-55
2023/06/24 02:32:47;;;;;;;22.63;13.40;;;16.60;99.90;;;;;;5061574;28;20171;-55
2023/06/24 02:35:13;;;;;;;16.13;12.90;;;16.60;99.90;;;;;;5058606;28;20037;-55
2023/06/24 02:37:39;;;;;;;16.60;13.02;;;16.50;99.90;;;;;;5061596;28;20071;-55
2023/06/24 02:40:08;;;;;;;14.90;13.40;;;16.40;99.90;;;;;;5079096;28;20045;-55
2023/06/24 02:42:33;;;;;;;15.82;13.25;;;16.40;99.90;;;;;;5069509;28;20045;-55
2023/06/24 02:45:00;;;;;;;15.18;13.57;;;16.40;99.90;;;;;;5063610;28;20119;-55
2023/06/24 02:47:27;;;;;;;14.98;13.40;;;16.40;99.90;;;;;;5077626;28;20051;-54
2023/06/24 02:49:54;;;;;;;15.43;13.00;;;16.30;99.90;;;;;;5070243;28;20478;-55
2023/06/24 02:52:20;;;;;;;18.83;13.55;;;16.30;99.90;;;;;;5057889;28;20048;-55
2023/06/24 02:54:46;;;;;;;16.88;13.35;;;16.30;99.90;;;;;;5074334;28;20107;-55
2023/06/24 02:57:14;;;;;;;17.17;13.48;;;16.20;99.90;;;;;;5077936;28;20045;-55
2023/06/24 02:59:39;;;;;;;16.65;12.82;;;16.20;99.90;;;;;;5066776;28;20051;-55
2023/06/24 03:02:05;;;;;;;13.70;12.30;;;16.20;99.90;;;;;;5063170;28;20064;-55
2023/06/24 03:04:31;;;;;;;14.98;12.43;;;16.20;99.90;;;;;;5082040;28;20045;-55
2023/06/24 03:06:59;;;;;;;15.65;13.10;;;16.20;99.90;;;;;;5081463;28;20171;-55
2023/06/24 03:09:26;;;;;;;15.25;12.20;;;16.20;99.90;;;;;;5076627;28;20072;-55
2023/06/24 03:11:52;;;;;;;17.70;13.05;;;16.20;99.90;;;;;;5080669;28;20037;-55
2023/06/24 03:14:17;;;;;;;15.65;12.30;;;16.20;99.90;;;;;;5081220;28;20047;-54
2023/06/24 03:16:43;;;;;;;16.50;11.95;;;16.20;99.90;;;;;;5081359;28;20045;-55
2023/06/24 03:19:09;;;;;;;15.05;12.05;;;16.20;99.90;;;;;;5075848;28;20065;-54
2023/06/24 03:21:34;;;;;;;13.60;11.65;;;16.20;99.90;;;;;;5061609;28;20037;-54
2023/06/24 03:24:00;;;;;;;14.18;12.65;;;16.20;99.90;;;;;;5079228;28;20045;-54
2023/06/24 03:26:36;;;;;;;16.83;13.07;;;16.20;99.90;;;;;;5064834;28;20159;-54
2023/06/24 03:29:03;;;;;;;16.70;12.93;;;16.30;99.90;;;;;;5066810;28;20032;-55
2023/06/24 03:31:29;;;;;;;17.80;13.45;;;16.30;99.90;;;;;;5081762;28;20044;-55
2023/06/24 03:33:54;;;;;;;15.00;12.80;;;16.30;99.90;;;;;;5080617;28;20048;-55
2023/06/24 03:36:20;;;;;;;16.05;12.75;;;16.30;99.90;;;;;;5080570;28;20075;-55
2023/06/24 03:38:46;;;;;;;16.50;13.35;;;16.20;99.90;;;;;;5078583;28;20070;-55
2023/06/24 03:41:12;;;;;;;15.23;12.70;;;16.20;99.90;;;;;;5062274;28;20037;-55
2023/06/24 03:43:38;;;;;;;14.43;12.90;;;16.20;99.90;;;;;;5062198;28;20141;-53
2023/06/24 03:46:03;;;;;;;15.80;12.85;;;16.30;99.90;;;;;;5061644;28;20033;-55
2023/06/24 03:48:29;;;;;;;15.88;13.35;;;16.30;99.90;;;;;;5061558;28;20044;-55
2023/06/24 03:50:55;;;;;;;16.60;13.93;;;16.30;99.90;;;;;;5081305;28;20064;-55
2023/06/24 03:53:20;;;;;;;14.98;13.13;;;16.30;99.90;;;;;;5067347;28;20049;-55
2023/06/24 03:55:46;;;;;;;19.02;14.55;;;16.30;99.90;;;;;;5065085;28;20528;-54
2023/06/24 03:58:13;;;;;;;16.15;13.82;;;16.30;99.90;;;;;;5075514;28;20044;-54
2023/06/24 04:00:40;;;;;;;15.50;13.27;;;16.40;99.90;;;;;;5079977;28;20068;-55
2023/06/24 04:03:08;;;;;;;17.67;13.95;;;16.40;99.90;;;;;;5080067;28;20040;-55
2023/06/24 04:05:34;;;;;;;17.33;14.15;;;16.40;99.90;;;;;;5080733;28;20063;-55
2023/06/24 04:08:00;;;;;;;18.08;14.90;;;16.30;99.90;;;;;;5079961;28;20048;-55
2023/06/24 04:10:25;;;;;;;17.48;13.68;;;16.30;99.90;;;;;;5066863;28;20037;-54
2023/06/24 04:12:51;;;;;;;20.90;14.95;;;16.30;99.90;;;;;;5074201;28;20501;-55
2023/06/24 04:15:17;;;;;;;20.73;15.63;;;16.30;99.90;;;;;;5077020;28;20048;-55
2023/06/24 04:17:43;;;;;;;17.35;14.20;;;16.30;99.90;;;;;;5080659;28;20052;-55
2023/06/24 04:20:09;;;;;;;18.58;14.27;;;16.20;99.90;;;;;;5081434;28;20033;-55
2023/06/24 04:22:40;;;;;;;17.42;14.63;;;16.20;99.90;;;;;;5075169;28;20093;-55
2023/06/24 04:25:06;;;;;;;16.80;14.02;;;16.20;99.90;;;;;;5060901;28;20033;-55
2023/06/24 04:27:33;;;;;;;28.23;15.43;;;16.30;99.90;;;;;;5069973;28;20061;-55
2023/06/24 04:29:59;;;;;;;15.68;14.07;;;16.30;99.90;;;;;;5067233;28;20040;-55
2023/06/24 04:32:25;;;;;;;16.88;14.02;;;16.30;99.90;;;;;;5075357;28;20040;-55
2023/06/24 04:34:51;;;;;;;23.17;14.50;;;16.40;99.90;;;;;;5065810;28;20101;-55
2023/06/24 04:37:17;;;;;;;18.58;14.40;;;16.40;99.90;;;;;;5060741;28;20048;-55
2023/06/24 04:39:43;;;;;;;18.48;14.60;;;16.50;99.90;;;;;;5065969;28;20401;-54
2023/06/24 04:42:10;;;;;;;16.33;13.57;;;16.50;99.90;;;;;;5073291;28;20120;-55
2023/06/24 04:44:36;;;;;;;16.23;14.15;;;16.60;99.90;;;;;;5075043;28;20432;-55
2023/06/24 04:47:02;;;;;;;21.85;15.02;;;16.60;99.90;;;;;;5060416;28;20071;-55
2023/06/24 04:49:27;;;;;;;21.85;15.57;;;16.60;99.90;;;;;;5064396;28;20037;-55
2023/06/24 04:51:53;;;;;;;16.65;14.45;;;16.60;99.90;;;;;;5062059;28;20032;-55
2023/06/24 04:54:19;;;;;;;18.45;15.23;;;16.70;99.90;;;;;;5067562;28;20074;-55
2023/06/24 04:56:45;;;;;;;16.17;13.75;;;16.80;99.90;;;;;;5059846;28;20427;-55
2023/06/24 04:59:11;;;;;;;17.95;14.63;;;16.80;99.90;;;;;;5068458;28;21434;-56
2023/06/24 05:01:37;;;;;;;17.77;14.93;;;16.80;99.90;;;;;;5071995;28;20040;-57
2023/06/24 05:04:03;;;;;;;17.95;14.73;;;16.90;99.90;;;;;;5074164;28;20051;-58
2023/06/24 05:06:28;;;;;;;19.77;13.88;;;17.00;99.90;;;;;;5063711;28;20124;-55
2023/06/24 05:08:54;;;;;;;20.48;15.05;;;17.00;99.90;;;;;;5074893;28;20041;-55
2023/06/24 05:11:20;;;;;;;17.90;15.07;;;17.10;99.90;;;;;;5072160;28;20412;-56
2023/06/24 05:13:45;;;;;;;17.60;14.50;;;17.10;99.90;;;;;;5077511;28;20365;-55
2023/06/24 05:16:11;;;;;;;19.55;15.38;;;17.20;99.90;;;;;;5069620;28;20041;-55
2023/06/24 05:18:37;;;;;;;17.83;14.82;;;17.20;99.90;;;;;;5065791;28;20563;-54
2023/06/24 05:21:02;;;;;;;17.40;14.55;;;17.30;99.90;;;;;;5068952;28;20056;-56
2023/06/24 05:23:28;;;;;;;17.27;14.20;;;17.30;99.90;;;;;;5068943;28;20045;-55
2023/06/24 05:25:53;;;;;;;16.90;14.73;;;17.40;99.90;;;;;;5061996;28;20077;-56
2023/06/24 05:28:19;;;;;;;19.50;15.15;;;17.50;99.90;;;;;;5072729;28;20064;-56
2023/06/24 05:30:45;;;;;;;20.35;15.57;;;17.50;99.90;;;;;;5072980;28;20051;-56
2023/06/24 05:33:11;;;;;;;23.13;15.95;;;17.60;99.90;;;;;;5066431;28;20033;-55
2023/06/24 05:35:40;;;;;;;19.27;14.15;;;17.70;99.90;;;;;;5063126;28;20096;-56
2023/06/24 05:38:06;;;;;;;20.00;14.70;;;17.70;99.90;;;;;;5059275;28;20128;-56
2023/06/24 05:40:32;;;;;;;18.50;15.38;;;17.80;99.90;;;;;;5059963;28;20554;-56
2023/06/24 05:42:57;;;;;;;18.00;15.32;;;17.90;99.90;;;;;;5059812;28;20035;-56
2023/06/24 05:45:23;;;;;;;19.45;15.52;;;17.90;99.90;;;;;;5059864;28;20386;-54
2023/06/24 05:47:49;;;;;;;19.85;15.20;;;18.00;99.90;;;;;;5059274;28;20105;-55
2023/06/24 05:50:14;;;;;;;20.08;15.35;;;18.10;99.90;;;;;;5066043;28;20041;-56
2023/06/24 05:52:40;;;;;;;19.25;15.25;;;18.20;99.90;;;;;;5061728;28;20100;-55
2023/06/24 05:55:06;;;;;;;19.42;15.48;;;18.30;99.90;;;;;;5059346;28;20052;-55
2023/06/24 05:57:32;;;;;;;19.60;15.57;;;18.40;99.90;;;;;;5059326;28;20041;-57
2023/06/24 05:59:57;;;;;;;20.42;16.75;;;18.30;99.90;;;;;;5059913;28;20114;-55
2023/06/24 06:02:23;;;;;;;18.02;15.55;;;18.50;99.90;;;;;;5069398;28;20047;-57
2023/06/24 06:04:49;;;;;;;18.00;15.27;;;18.60;99.90;;;;;;5063550;28;20045;-57
2023/06/24 06:07:15;;;;;;;17.45;14.82;;;18.70;99.90;;;;;;5069770;28;20041;-58
2023/06/24 06:09:41;;;;;;;17.95;15.10;;;18.80;99.90;;;;;;5060082;28;20115;-55
2023/06/24 06:12:07;;;;;;;17.30;14.77;;;18.90;99.90;;;;;;5065807;28;20039;-54
2023/06/24 06:14:33;;;;;;;18.60;14.63;;;19.10;99.90;;;;;;5079299;28;20051;-55
2023/06/24 06:16:58;;;;;;;17.92;14.40;;;19.40;99.90;;;;;;5077514;28;20045;-55
2023/06/24 06:19:24;;;;;;;18.23;14.05;;;19.20;99.90;;;;;;5077984;28;20096;-54
2023/06/24 06:21:51;;;;;;;15.02;13.43;;;19.30;99.90;;;;;;5068684;28;20037;-54
2023/06/24 06:24:17;;;;;;;15.00;12.85;;;19.40;99.90;;;;;;5058929;28;20044;-58
2023/06/24 06:26:43;;;;;;;17.52;13.43;;;19.50;99.90;;;;;;5072387;28;20055;-56
2023/06/24 06:29:12;;;;;;;13.45;11.82;;;19.60;99.90;;;;;;5075727;28;20036;-56
2023/06/24 06:31:39;;;;;;;18.50;12.25;;;19.80;99.90;;;;;;5061277;28;20047;-55
2023/06/24 06:34:05;;;;;;;14.30;11.30;;;20.00;99.90;;;;;;5070087;28;20044;-56
2023/06/24 06:36:30;;;;;;;13.65;11.00;;;20.10;99.90;;;;;;5057292;28;20049;-56
2023/06/24 06:38:56;;;;;;;15.60;11.93;;;20.30;99.90;;;;;;5067163;28;20088;-55
2023/06/24 06:41:24;;;;;;;12.48;10.60;;;20.40;99.90;;;;;;5076237;28;20047;-56
2023/06/24 06:43:53;;;;;;;12.88;10.63;;;20.50;99.90;;;;;;5078816;28;20045;-55
2023/06/24 06:46:19;;;;;;;13.60;10.73;;;20.70;99.90;;;;;;5063362;28;20075;-55
2023/06/24 06:48:45;;;;;;;14.60;11.63;;;20.90;99.90;;;;;;5077483;28;20049;-56
2023/06/24 06:51:12;;;;;;;13.60;10.35;;;21.10;99.90;;;;;;5078505;28;20132;-55
2023/06/24 06:53:38;;;;;;;12.27;10.05;;;21.40;99.90;;;;;;5061290;28;20070;-56
2023/06/24 06:56:04;;;;;;;16.63;11.30;;;21.70;99.90;;;;;;5072442;28;20051;-55
2023/06/24 06:58:29;;;;;;;13.95;10.57;;;21.90;99.90;;;;;;5071448;28;20033;-55
2023/06/24 07:00:55;;;;;;;13.70;11.00;;;22.10;99.90;;;;;;5066804;28;20062;-56
2023/06/24 07:03:21;;;;;;;13.48;11.32;;;22.20;99.90;;;;;;5076357;28;20044;-56
2023/06/24 07:05:47;;;;;;;13.75;10.55;;;22.10;99.90;;;;;;5078657;28;20049;-56
2023/06/24 07:08:13;;;;;;;14.82;10.93;;;22.00;99.90;;;;;;5078325;28;20041;-56
2023/06/24 07:10:38;;;;;;;13.70;10.80;;;21.90;99.90;;;;;;5078929;28;20560;-56
2023/06/24 07:13:04;;;;;;;11.93;10.13;;;21.80;99.90;;;;;;5075392;28;20045;-57
2023/06/24 07:15:29;;;;;;;13.48;10.98;;;21.80;99.90;;;;;;5061693;28;20113;-56
2023/06/24 07:17:55;;;;;;;12.27;9.80;;;21.80;99.90;;;;;;5066634;28;20070;-56
2023/06/24 07:20:22;;;;;;;13.35;9.32;;;21.90;99.90;;;;;;5058146;28;20055;-57
2023/06/24 07:22:48;;;;;;;9.57;8.20;;;22.00;99.90;;;;;;5057851;28;20055;-56
2023/06/24 07:25:14;;;;;;;11.10;8.60;;;22.20;99.90;;;;;;5058747;28;20041;-56
2023/06/24 07:27:39;;;;;;;9.82;7.43;;;22.40;99.90;;;;;;5068738;28;20102;-56
2023/06/24 07:30:06;;;;;;;9.88;6.68;;;22.60;99.90;;;;;;5072937;28;20025;-55
2023/06/24 07:32:31;;;;;;;10.63;7.22;;;22.70;99.90;;;;;;5061754;28;20041;-56
2023/06/24 07:34:57;;;;;;;7.75;6.53;;;22.80;99.90;;;;;;5061555;28;20037;-56
2023/06/24 07:37:23;;;;;;;11.45;6.20;;;22.90;99.90;;;;;;5057970;28;20595;-56
2023/06/24 07:39:49;;;;;;;12.48;6.60;;;22.80;99.90;;;;;;5058694;28;20100;-56
2023/06/24 07:42:18;;;;;;;9.02;6.40;;;22.80;99.90;;;;;;5057628;28;20064;-56
2023/06/24 07:44:45;;;;;;;10.57;6.57;;;22.70;99.90;;;;;;5071379;28;20051;-56
2023/06/24 07:47:11;;;;;;;7.38;6.25;;;22.70;99.90;;;;;;5076649;28;20043;-56
2023/06/24 07:49:36;;;;;;;8.77;7.00;;;22.60;99.90;;;;;;5061196;28;20097;-56
2023/06/24 07:52:03;;;;;;;10.32;6.93;;;22.60;99.90;;;;;;5060693;28;20040;-55
2023/06/24 07:54:28;;;;;;;9.20;6.97;;;22.60;99.90;;;;;;5076416;28;20078;-56
2023/06/24 07:56:54;;;;;;;10.68;7.15;;;22.60;99.90;;;;;;5081404;28;20490;-56
2023/06/24 07:59:20;;;;;;;12.88;7.30;;;22.60;99.90;;;;;;5074237;28;20106;-56
2023/06/24 08:01:45;;;;;;;8.30;6.68;;;22.70;99.90;;;;;;5074891;28;20055;-56
2023/06/24 08:04:11;;;;;;;9.80;7.07;;;22.80;99.90;;;;;;5078628;28;20033;-56
2023/06/24 08:06:37;;;;;;;6.38;5.72;;;22.90;99.90;;;;;;5061422;28;20052;-56
2023/06/24 08:09:02;;;;;;;11.15;5.88;;;23.10;99.90;;;;;;5061195;28;20045;-56
2023/06/24 08:11:28;;;;;;;9.48;5.82;;;23.30;99.90;;;;;;5064925;28;20472;-56
2023/06/24 08:13:54;;;;;;;9.82;5.50;;;23.40;99.90;;;;;;5066546;28;20132;-56
2023/06/24 08:16:20;;;;;;;5.78;5.13;;;23.60;99.90;;;;;;5079251;28;20120;-56
2023/06/24 08:18:46;;;;;;;6.50;5.30;;;23.70;99.90;;;;;;5074586;28;20051;-56
2023/06/24 08:21:12;;;;;;;6.97;5.38;;;23.90;99.70;;;;;;5074350;28;20051;-56
2023/06/24 08:23:37;;;;;;;6.72;5.15;;;24.00;99.20;;;;;;5068122;28;20033;-58
2023/06/24 08:26:03;;;;;;;14.32;5.03;;;24.00;98.90;;;;;;5075315;28;20071;-56
2023/06/24 08:28:29;;;;;;;6.80;4.60;;;24.10;98.70;;;;;;5081133;28;20477;-57
2023/06/24 08:30:54;;;;;;;5.75;4.55;;;24.20;98.30;;;;;;5073172;28;20068;-56
2023/06/24 08:33:20;;;;;;;5.60;4.50;;;24.50;97.90;;;;;;5060503;28;20045;-57
2023/06/24 08:35:46;;;;;;;6.53;4.40;;;24.90;97.30;;;;;;5072831;28;20075;-56
2023/06/24 08:38:11;;;;;;;5.93;4.70;;;25.20;96.60;;;;;;5078945;28;20535;-56
2023/06/24 08:40:39;;;;;;;5.97;4.53;;;25.50;96.20;;;;;;5079871;28;20044;-57
2023/06/24 08:43:06;;;;;;;4.20;3.25;;;25.70;95.70;;;;;;5080218;28;20068;-56
2023/06/24 08:45:32;;;;;;;6.00;4.30;;;25.90;93.90;;;;;;5079685;28;20516;-56
2023/06/24 08:48:01;;;;;;;6.07;4.32;;;26.20;93.50;;;;;;5063901;28;20051;-55
2023/06/24 08:50:34;;;;;;;7.88;4.82;;;26.40;92.90;;;;;;5060175;28;20236;-57
2023/06/24 08:53:05;;;;;;;5.18;3.90;;;26.60;92.10;;;;;;5060225;28;20045;-57
2023/06/24 08:55:35;;;;;;;9.18;4.68;;;26.80;92.00;;;;;;5059990;28;20075;-56
2023/06/24 08:58:00;;;;;;;6.78;4.13;;;27.00;91.50;;;;;;5069637;28;20060;-57
2023/06/24 09:00:27;;;;;;;6.00;4.20;;;27.20;90.90;;;;;;5079453;28;20036;-57
2023/06/24 09:02:52;;;;;;;8.27;4.55;;;27.20;90.20;;;;;;5080241;28;20040;-56
2023/06/24 09:05:18;;;;;;;5.80;4.95;;;27.30;90.20;;;;;;5067521;28;20052;-57
2023/06/24 09:07:43;;;;;;;7.72;4.18;;;27.40;90.60;;;;;;5059217;28;20040;-56
2023/06/24 09:10:09;;;;;;;5.50;3.75;;;27.40;90.30;;;;;;5059582;28;20041;-56
2023/06/24 09:12:35;;;;;;;4.72;3.40;;;27.50;88.70;;;;;;5059694;28;20049;-56
2023/06/24 09:15:02;;;;;;;4.22;2.85;;;27.60;88.40;;;;;;5060455;28;20040;-57
2023/06/24 09:17:28;;;;;;;5.97;3.60;;;27.60;86.30;;;;;;5058983;28;20120;-56
2023/06/24 09:20:04;;;;;;;4.20;2.97;;;27.80;85.80;;;;;;5067722;28;20067;-57
2023/06/24 09:22:30;;;;;;;;;;;28.00;85.60;;;;;;5065852;28;20066;-57
2023/06/24 09:24:56;;;;;;;6.55;3.75;;;28.20;84.00;;;;;;5067487;28;19951;-57
2023/06/24 09:27:23;;;;;;;7.13;4.00;;;28.20;85.70;;;;;;5059537;28;20154;-57
2023/06/24 09:29:49;;;;;;;6.22;3.90;;;28.20;85.00;;;;;;5061347;28;20029;-57
2023/06/24 09:32:15;;;;;;;5.97;4.40;;;28.20;84.50;;;;;;5069143;28;20094;-57
2023/06/24 09:34:40;;;;;;;5.63;4.80;;;28.10;85.50;;;;;;5059569;28;20096;-57
2023/06/24 09:37:06;;;;;;;8.80;4.32;;;28.10;86.30;;;;;;5068275;28;20477;-57
2023/06/24 09:39:37;;;;;;;9.15;5.55;;;28.10;86.70;;;;;;5077594;28;20105;-57
2023/06/24 09:42:04;;;;;;;7.30;5.78;;;28.00;86.40;;;;;;5079095;28;20071;-56
2023/06/24 09:44:30;;;;;;;6.30;4.65;;;28.00;87.60;;;;;;5068814;28;20037;-57
2023/06/24 09:46:56;;;;;;;13.18;5.25;;;27.90;87.60;;;;;;5071696;28;20175;-57
2023/06/24 09:49:22;;;;;;;7.18;4.65;;;27.90;88.40;;;;;;5058634;28;20591;-57
2023/06/24 09:51:54;;;;;;;6.20;4.35;;;27.90;87.80;;;;;;5058718;28;20369;-57
2023/06/24 09:54:21;;;;;;;11.02;4.80;;;28.00;85.90;;;;;;5059289;28;20120;-58
2023/06/24 09:56:49;;;;;;;8.55;5.30;;;28.10;85.80;;;;;;5066993;28;20036;-57
2023/06/24 09:59:17;;;;;;;7.85;5.28;;;28.00;86.70;;;;;;5065999;28;20570;-57
2023/06/24 10:01:44;;;;;;;8.07;5.03;;;28.00;86.30;;;;;;5058605;28;20037;-57
2023/06/24 10:04:16;;;;;;;8.20;4.97;;;27.90;86.40;;;;;;5071721;28;20045;-58
2023/06/24 10:06:42;;;;;;;6.57;4.70;;;27.90;86.20;;;;;;5058528;28;20127;-57
2023/06/24 10:09:08;;;;;;;6.63;5.65;;;27.90;86.40;;;;;;5044148;28;20083;-57
2023/06/24 10:11:34;;;;;;;10.90;5.25;;;28.00;85.60;;;;;;5065234;28;20052;-58
2023/06/24 10:14:00;;;;;;;7.45;5.00;;;28.00;85.70;;;;;;5068573;28;20036;-57
2023/06/24 10:16:26;;;;;;;7.07;5.00;;;28.00;85.10;;;;;;5073322;28;20100;-58
2023/06/24 10:18:51;;;;;;;6.22;5.30;;;27.90;85.20;;;;;;5063556;28;20052;-57
2023/06/24 10:21:17;;;;;;;5.88;4.72;;;27.80;85.10;;;;;;5073529;28;20057;-57
2023/06/24 10:23:49;;;;;;;7.25;4.65;;;27.70;85.50;;;;;;5069143;28;20500;-57
2023/06/24 10:26:30;;;;;;;12.43;4.55;;;27.60;85.10;;;;;;5063644;28;20044;-58
2023/06/24 10:29:05;;;;;;;6.78;5.15;;;27.50;85.70;;;;;;5063149;28;20041;-57
2023/06/24 10:31:39;;;;;;;12.20;5.90;;;27.40;85.90;;;;;;5063993;28;20079;-57
2023/06/24 10:34:29;;;;;;;6.90;5.35;;;27.30;85.80;;;;;;5058860;28;20322;-57
2023/06/24 10:36:56;;;;;;;12.40;5.63;;;27.20;86.40;;;;;;5058173;28;20051;-57
2023/06/24 10:39:40;;;;;;;8.98;5.88;;;27.20;86.70;;;;;;5072202;28;20088;-57
2023/06/24 10:42:33;;;;;;;9.32;6.35;;;27.20;86.60;;;;;;5062322;28;20055;-57
2023/06/24 10:45:11;;;;;;;8.15;5.93;;;27.20;87.10;;;;;;5061001;28;20040;-57
2023/06/24 10:47:45;;;;;;;6.53;5.10;;;27.10;87.10;;;;;;5065302;28;20056;-57
2023/06/24 10:50:21;;;;;;;6.50;5.35;;;27.10;86.90;;;;;;5062725;28;20093;-57
2023/06/24 10:52:48;;;;;;;6.53;4.20;;;27.10;87.60;;;;;;5062447;28;20044;-57
2023/06/24 10:55:15;;;;;;;6.78;4.65;;;27.10;86.10;;;;;;5072619;28;20044;-58
2023/06/24 10:57:42;;;;;;;5.80;4.40;;;27.10;85.40;;;;;;5068806;28;20052;-58
2023/06/24 11:00:08;;;;;;;5.97;4.18;;;27.10;85.00;;;;;;5066866;28;20056;-58
2023/06/24 11:02:34;;;;;;;8.82;4.30;;;27.00;84.60;;;;;;5061916;28;20100;-59
2023/06/24 11:05:01;;;;;;;7.70;5.43;;;27.00;85.00;;;;;;5061767;28;20052;-57
2023/06/24 11:07:30;;;;;;;5.57;4.68;;;27.10;85.10;;;;;;5076632;28;20452;-58
2023/06/24 11:10:01;;;;;;;5.75;5.20;;;27.30;85.40;;;;;;5064253;28;20056;-57
2023/06/24 11:12:32;;;;;;;7.88;4.65;;;27.20;85.80;;;;;;5068668;28;20487;-58
2023/06/24 11:15:02;;;;;;;4.65;4.15;;;27.40;86.00;;;;;;5059508;28;20041;-57
2023/06/24 11:17:28;;;;;;;5.70;4.70;;;27.50;86.00;;;;;;5065418;28;20222;-58
2023/06/24 11:19:55;;;;;;;5.57;4.78;;;27.60;85.40;;;;;;5064760;28;20032;-57
2023/06/24 11:22:22;;;;;;;5.30;4.72;;;27.60;84.40;;;;;;5060964;28;20613;-56
2023/06/24 11:24:48;;;;;;;5.72;4.60;;;27.60;84.60;;;;;;5065507;28;20041;-59
2023/06/24 11:27:14;;;;;;;6.15;5.30;;;27.60;85.30;;;;;;5064178;28;20064;-57
2023/06/24 11:29:39;;;;;;;5.10;4.60;;;27.60;84.70;;;;;;5064280;28;20044;-57
2023/06/24 11:32:09;;;;;;;6.63;4.60;;;27.60;85.00;;;;;;5074914;28;20033;-56
2023/06/24 11:34:38;;;;;;;6.30;4.80;;;27.60;85.00;;;;;;5068957;28;20064;-57
2023/06/24 11:37:11;;;;;;;5.30;3.90;;;27.70;84.20;;;;;;5079714;28;20079;-57
2023/06/24 11:39:36;;;;;;;7.57;4.43;;;27.70;85.30;;;;;;5071472;28;20119;-57
2023/06/24 11:42:05;;;;;;;5.20;4.43;;;27.80;85.30;;;;;;5080180;28;20032;-56
2023/06/24 11:44:31;;;;;;;6.07;4.00;;;27.90;85.40;;;;;;5081958;28;20090;-56
2023/06/24 11:47:07;;;;;;;7.18;4.80;;;28.10;84.10;;;;;;5081607;28;20044;-56
2023/06/24 11:49:48;;;;;;;8.48;4.93;;;28.30;84.50;;;;;;5077967;28;20041;-58
2023/06/24 11:52:14;;;;;;;8.43;4.45;;;28.40;83.20;;;;;;5080157;28;20048;-58
2023/06/24 11:54:43;;;;;;;4.72;4.28;;;28.60;85.50;;;;;;5081289;28;20044;-57
2023/06/24 11:57:09;;;;;;;7.00;4.60;;;28.70;83.80;;;;;;5074490;28;20082;-61
2023/06/24 11:59:35;;;;;;;5.93;4.15;;;28.70;82.90;;;;;;5064442;28;20112;-57
2023/06/24 12:02:03;;;;;;;4.88;4.30;;;28.80;82.10;;;;;;5071414;28;20064;-57
2023/06/24 12:04:31;;;;;;;4.88;4.00;;;28.70;81.50;;;;;;5074802;28;20079;-57
2023/06/24 12:06:57;;;;;;;5.38;4.15;;;28.50;82.20;;;;;;5070245;28;20044;-57
2023/06/24 12:09:23;;;;;;;7.20;4.20;;;28.40;82.70;;;;;;5066419;28;20072;-57
2023/06/24 12:11:49;;;;;;;8.57;4.13;;;28.50;83.60;;;;;;5069235;28;20044;-57
2023/06/24 12:14:15;;;;;;;6.47;3.88;;;28.50;83.40;;;;;;5075380;28;20115;-58
2023/06/24 12:16:41;;;;;;;4.88;3.65;;;28.60;83.30;;;;;;5068082;28;20044;-57
2023/06/24 12:19:07;;;;;;;5.60;3.63;;;28.50;82.60;;;;;;5077974;28;20446;-57
2023/06/24 12:21:34;;;;;;;5.68;3.50;;;28.40;82.20;;;;;;5068857;28;20040;-57
2023/06/24 12:23:59;;;;;;;7.20;4.45;;;28.40;82.00;;;;;;5060932;28;20033;-57
2023/06/24 12:26:25;;;;;;;7.15;4.22;;;28.30;82.20;;;;;;5060768;28;20052;-58
2023/06/24 12:28:53;;;;;;;7.47;4.03;;;28.30;82.30;;;;;;5064014;28;20072;-57
2023/06/24 12:31:19;;;;;;;5.97;4.47;;;28.20;82.30;;;;;;5067904;28;20040;-58
2023/06/24 12:33:45;;;;;;;7.30;4.72;;;28.20;82.20;;;;;;5065359;28;20064;-57
2023/06/24 12:36:10;;;;;;;7.15;4.75;;;28.10;82.70;;;;;;5059979;28;20070;-57